sensor_id;sensor_type;location;lat;lon;timestamp;P1;durP1;ratioP1;P2;durP2;ratioP2
363;SDS011;173;48.718;9.274;2022-07-10T00:02:06;4.33;;;4.03;;
363;SDS011;173;48.718;9.274;2022-07-10T00:04:39;5.10;;;4.70;;
363;SDS011;173;48.718;9.274;2022-07-10T00:07:11;4.93;;;4.57;;
363;SDS011;173;48.718;9.274;2022-07-10T00:09:43;4.60;;;4.20;;
363;SDS011;173;48.718;9.274;2022-07-10T00:12:15;4.80;;;4.40;;
363;SDS011;173;48.718;9.274;2022-07-10T00:14:48;4.55;;;4.15;;
363;SDS011;173;48.718;9.274;2022-07-10T00:17:20;5.93;;;5.33;;
363;SDS011;173;48.718;9.274;2022-07-10T00:19:52;5.60;;;5.15;;
363;SDS011;173;48.718;9.274;2022-07-10T00:22:24;5.20;;;4.70;;
363;SDS011;173;48.718;9.274;2022-07-10T00:24:56;5.10;;;4.70;;
363;SDS011;173;48.718;9.274;2022-07-10T00:27:29;5.47;;;4.97;;
363;SDS011;173;48.718;9.274;2022-07-10T00:30:02;5.30;;;4.80;;
363;SDS011;173;48.718;9.274;2022-07-10T00:35:06;5.20;;;4.70;;
363;SDS011;173;48.718;9.274;2022-07-10T00:37:39;4.90;;;4.40;;
363;SDS011;173;48.718;9.274;2022-07-10T00:40:11;5.35;;;4.95;;
363;SDS011;173;48.718;9.274;2022-07-10T00:42:43;5.30;;;4.90;;
363;SDS011;173;48.718;9.274;2022-07-10T00:50:16;5.20;;;4.70;;
363;SDS011;173;48.718;9.274;2022-07-10T00:52:48;5.80;;;5.30;;
363;SDS011;173;48.718;9.274;2022-07-10T00:55:21;4.93;;;4.53;;
363;SDS011;173;48.718;9.274;2022-07-10T01:00:34;4.70;;;4.35;;
363;SDS011;173;48.718;9.274;2022-07-10T01:03:07;4.60;;;4.10;;
363;SDS011;173;48.718;9.274;2022-07-10T01:05:39;4.25;;;3.90;;
363;SDS011;173;48.718;9.274;2022-07-10T01:08:10;3.80;;;3.50;;
363;SDS011;173;48.718;9.274;2022-07-10T01:10:43;4.00;;;3.70;;
363;SDS011;173;48.718;9.274;2022-07-10T01:13:17;4.20;;;3.80;;
363;SDS011;173;48.718;9.274;2022-07-10T01:15:50;4.25;;;3.95;;
363;SDS011;173;48.718;9.274;2022-07-10T01:18:22;4.45;;;4.05;;
363;SDS011;173;48.718;9.274;2022-07-10T01:20:58;4.43;;;4.03;;
363;SDS011;173;48.718;9.274;2022-07-10T01:23:30;4.30;;;4.00;;
363;SDS011;173;48.718;9.274;2022-07-10T01:26:02;4.45;;;3.85;;
363;SDS011;173;48.718;9.274;2022-07-10T01:28:34;4.15;;;3.85;;
363;SDS011;173;48.718;9.274;2022-07-10T01:31:06;4.30;;;3.60;;
363;SDS011;173;48.718;9.274;2022-07-10T01:33:38;4.05;;;3.75;;
363;SDS011;173;48.718;9.274;2022-07-10T01:36:11;3.90;;;3.60;;
363;SDS011;173;48.718;9.274;2022-07-10T01:38:43;3.60;;;3.30;;
363;SDS011;173;48.718;9.274;2022-07-10T01:41:15;4.20;;;3.90;;
363;SDS011;173;48.718;9.274;2022-07-10T01:43:48;4.80;;;3.80;;
363;SDS011;173;48.718;9.274;2022-07-10T01:46:21;4.15;;;3.85;;
363;SDS011;173;48.718;9.274;2022-07-10T01:48:53;4.60;;;4.30;;
363;SDS011;173;48.718;9.274;2022-07-10T01:51:25;5.20;;;4.70;;
363;SDS011;173;48.718;9.274;2022-07-10T01:53:57;3.60;;;3.40;;
363;SDS011;173;48.718;9.274;2022-07-10T01:56:30;4.05;;;3.75;;
363;SDS011;173;48.718;9.274;2022-07-10T01:59:01;4.70;;;4.30;;
363;SDS011;173;48.718;9.274;2022-07-10T02:01:31;4.95;;;4.45;;
363;SDS011;173;48.718;9.274;2022-07-10T02:04:03;4.60;;;4.30;;
363;SDS011;173;48.718;9.274;2022-07-10T02:06:54;4.40;;;4.10;;
363;SDS011;173;48.718;9.274;2022-07-10T02:09:26;3.70;;;3.50;;
363;SDS011;173;48.718;9.274;2022-07-10T02:11:58;4.20;;;3.90;;
363;SDS011;173;48.718;9.274;2022-07-10T02:14:30;4.15;;;3.75;;
363;SDS011;173;48.718;9.274;2022-07-10T02:17:09;4.95;;;4.55;;
363;SDS011;173;48.718;9.274;2022-07-10T02:23:51;4.50;;;4.10;;
363;SDS011;173;48.718;9.274;2022-07-10T02:26:24;4.40;;;4.00;;
363;SDS011;173;48.718;9.274;2022-07-10T02:28:56;4.95;;;4.60;;
363;SDS011;173;48.718;9.274;2022-07-10T02:31:28;6.00;;;5.50;;
363;SDS011;173;48.718;9.274;2022-07-10T02:34:02;5.15;;;4.75;;
363;SDS011;173;48.718;9.274;2022-07-10T02:36:35;5.55;;;5.10;;
363;SDS011;173;48.718;9.274;2022-07-10T02:39:08;5.40;;;4.80;;
363;SDS011;173;48.718;9.274;2022-07-10T02:41:40;5.40;;;4.90;;
363;SDS011;173;48.718;9.274;2022-07-10T02:44:12;5.50;;;5.00;;
363;SDS011;173;48.718;9.274;2022-07-10T02:49:15;5.10;;;4.70;;
363;SDS011;173;48.718;9.274;2022-07-10T02:51:47;5.40;;;5.00;;
363;SDS011;173;48.718;9.274;2022-07-10T02:54:20;8.30;;;6.50;;
363;SDS011;173;48.718;9.274;2022-07-10T02:56:52;7.00;;;6.20;;
363;SDS011;173;48.718;9.274;2022-07-10T02:59:24;7.10;;;6.50;;
363;SDS011;173;48.718;9.274;2022-07-10T03:01:56;8.10;;;7.40;;
363;SDS011;173;48.718;9.274;2022-07-10T03:04:28;9.30;;;8.50;;
363;SDS011;173;48.718;9.274;2022-07-10T03:07:01;7.80;;;7.10;;
363;SDS011;173;48.718;9.274;2022-07-10T03:09:33;8.60;;;7.80;;
363;SDS011;173;48.718;9.274;2022-07-10T03:12:04;8.70;;;7.80;;
363;SDS011;173;48.718;9.274;2022-07-10T03:14:37;7.90;;;7.10;;
363;SDS011;173;48.718;9.274;2022-07-10T03:17:09;8.70;;;7.90;;
363;SDS011;173;48.718;9.274;2022-07-10T03:19:41;9.30;;;8.40;;
363;SDS011;173;48.718;9.274;2022-07-10T03:22:13;8.70;;;8.00;;
363;SDS011;173;48.718;9.274;2022-07-10T03:24:45;8.90;;;8.10;;
363;SDS011;173;48.718;9.274;2022-07-10T03:27:17;8.90;;;8.10;;
363;SDS011;173;48.718;9.274;2022-07-10T03:29:50;9.90;;;8.90;;
363;SDS011;173;48.718;9.274;2022-07-10T03:32:22;8.70;;;8.00;;
363;SDS011;173;48.718;9.274;2022-07-10T03:34:54;9.20;;;8.40;;
363;SDS011;173;48.718;9.274;2022-07-10T03:37:27;7.60;;;6.90;;
363;SDS011;173;48.718;9.274;2022-07-10T03:39:58;8.80;;;7.90;;
363;SDS011;173;48.718;9.274;2022-07-10T03:42:28;7.60;;;7.00;;
363;SDS011;173;48.718;9.274;2022-07-10T03:45:00;7.60;;;7.00;;
363;SDS011;173;48.718;9.274;2022-07-10T03:47:33;6.95;;;6.40;;
363;SDS011;173;48.718;9.274;2022-07-10T03:50:06;9.00;;;7.70;;
363;SDS011;173;48.718;9.274;2022-07-10T03:52:38;7.50;;;6.90;;
363;SDS011;173;48.718;9.274;2022-07-10T03:55:12;7.70;;;7.00;;
363;SDS011;173;48.718;9.274;2022-07-10T03:57:44;9.30;;;7.95;;
363;SDS011;173;48.718;9.274;2022-07-10T04:00:27;8.50;;;7.80;;
363;SDS011;173;48.718;9.274;2022-07-10T04:03:03;7.70;;;7.10;;
363;SDS011;173;48.718;9.274;2022-07-10T04:05:36;7.50;;;6.90;;
363;SDS011;173;48.718;9.274;2022-07-10T04:08:08;7.65;;;7.05;;
363;SDS011;173;48.718;9.274;2022-07-10T04:10:40;8.20;;;7.40;;
363;SDS011;173;48.718;9.274;2022-07-10T04:13:12;7.20;;;6.60;;
363;SDS011;173;48.718;9.274;2022-07-10T04:15:44;9.80;;;7.60;;
363;SDS011;173;48.718;9.274;2022-07-10T04:18:17;7.90;;;7.30;;
363;SDS011;173;48.718;9.274;2022-07-10T04:20:49;9.30;;;8.55;;
363;SDS011;173;48.718;9.274;2022-07-10T04:23:21;8.20;;;7.50;;
363;SDS011;173;48.718;9.274;2022-07-10T04:25:53;9.30;;;8.30;;
363;SDS011;173;48.718;9.274;2022-07-10T04:28:26;8.20;;;7.35;;
363;SDS011;173;48.718;9.274;2022-07-10T04:30:58;7.10;;;6.50;;
363;SDS011;173;48.718;9.274;2022-07-10T04:36:01;7.30;;;6.70;;
363;SDS011;173;48.718;9.274;2022-07-10T04:38:33;7.20;;;6.55;;
363;SDS011;173;48.718;9.274;2022-07-10T04:41:05;7.05;;;6.35;;
363;SDS011;173;48.718;9.274;2022-07-10T04:43:38;7.00;;;6.40;;
363;SDS011;173;48.718;9.274;2022-07-10T04:46:10;9.85;;;6.90;;
363;SDS011;173;48.718;9.274;2022-07-10T04:48:42;6.35;;;5.85;;
363;SDS011;173;48.718;9.274;2022-07-10T04:51:16;9.20;;;7.10;;
363;SDS011;173;48.718;9.274;2022-07-10T04:53:49;6.90;;;6.25;;
363;SDS011;173;48.718;9.274;2022-07-10T04:56:21;7.10;;;6.60;;
363;SDS011;173;48.718;9.274;2022-07-10T04:58:54;6.80;;;6.20;;
363;SDS011;173;48.718;9.274;2022-07-10T05:01:26;6.55;;;5.90;;
363;SDS011;173;48.718;9.274;2022-07-10T05:03:59;7.40;;;6.70;;
363;SDS011;173;48.718;9.274;2022-07-10T05:12:00;5.60;;;5.20;;
363;SDS011;173;48.718;9.274;2022-07-10T05:14:34;6.20;;;5.60;;
363;SDS011;173;48.718;9.274;2022-07-10T05:17:04;5.05;;;4.20;;
363;SDS011;173;48.718;9.274;2022-07-10T05:19:35;5.50;;;4.90;;
363;SDS011;173;48.718;9.274;2022-07-10T05:22:07;5.75;;;5.30;;
363;SDS011;173;48.718;9.274;2022-07-10T05:24:39;5.70;;;5.20;;
363;SDS011;173;48.718;9.274;2022-07-10T05:27:11;5.25;;;4.85;;
363;SDS011;173;48.718;9.274;2022-07-10T05:29:45;5.40;;;4.90;;
363;SDS011;173;48.718;9.274;2022-07-10T05:32:18;5.05;;;4.65;;
363;SDS011;173;48.718;9.274;2022-07-10T05:34:51;4.90;;;4.50;;
363;SDS011;173;48.718;9.274;2022-07-10T05:37:25;7.20;;;5.30;;
363;SDS011;173;48.718;9.274;2022-07-10T05:39:57;5.65;;;5.05;;
363;SDS011;173;48.718;9.274;2022-07-10T05:42:30;5.50;;;4.75;;
363;SDS011;173;48.718;9.274;2022-07-10T05:45:01;6.10;;;5.60;;
363;SDS011;173;48.718;9.274;2022-07-10T05:47:32;5.30;;;4.90;;
363;SDS011;173;48.718;9.274;2022-07-10T05:50:05;5.20;;;4.80;;
363;SDS011;173;48.718;9.274;2022-07-10T05:52:37;5.90;;;5.40;;
363;SDS011;173;48.718;9.274;2022-07-10T05:55:10;7.30;;;4.00;;
363;SDS011;173;48.718;9.274;2022-07-10T05:57:42;3.40;;;3.20;;
363;SDS011;173;48.718;9.274;2022-07-10T06:00:14;3.40;;;3.10;;
363;SDS011;173;48.718;9.274;2022-07-10T06:02:46;3.40;;;3.20;;
363;SDS011;173;48.718;9.274;2022-07-10T06:05:18;3.30;;;3.00;;
363;SDS011;173;48.718;9.274;2022-07-10T06:07:51;3.30;;;2.80;;
363;SDS011;173;48.718;9.274;2022-07-10T06:10:23;3.10;;;2.90;;
363;SDS011;173;48.718;9.274;2022-07-10T06:12:55;3.30;;;3.00;;
363;SDS011;173;48.718;9.274;2022-07-10T06:15:27;3.40;;;3.10;;
363;SDS011;173;48.718;9.274;2022-07-10T06:17:59;2.80;;;2.60;;
363;SDS011;173;48.718;9.274;2022-07-10T06:20:32;3.35;;;3.10;;
363;SDS011;173;48.718;9.274;2022-07-10T06:23:04;3.20;;;2.70;;
363;SDS011;173;48.718;9.274;2022-07-10T06:25:37;3.80;;;3.05;;
363;SDS011;173;48.718;9.274;2022-07-10T06:28:09;2.40;;;2.30;;
363;SDS011;173;48.718;9.274;2022-07-10T06:42:17;2.30;;;1.90;;
363;SDS011;173;48.718;9.274;2022-07-10T06:44:49;2.30;;;2.10;;
363;SDS011;173;48.718;9.274;2022-07-10T06:47:21;4.90;;;2.60;;
363;SDS011;173;48.718;9.274;2022-07-10T06:50:12;2.30;;;2.00;;
363;SDS011;173;48.718;9.274;2022-07-10T07:00:41;2.40;;;2.20;;
363;SDS011;173;48.718;9.274;2022-07-10T07:03:13;3.10;;;2.90;;
363;SDS011;173;48.718;9.274;2022-07-10T07:05:46;2.70;;;2.50;;
363;SDS011;173;48.718;9.274;2022-07-10T07:08:18;4.65;;;3.10;;
363;SDS011;173;48.718;9.274;2022-07-10T07:10:50;2.80;;;2.60;;
363;SDS011;173;48.718;9.274;2022-07-10T07:13:22;3.40;;;2.30;;
363;SDS011;173;48.718;9.274;2022-07-10T07:15:54;2.30;;;2.10;;
363;SDS011;173;48.718;9.274;2022-07-10T07:18:28;2.60;;;2.40;;
363;SDS011;173;48.718;9.274;2022-07-10T07:21:02;4.80;;;2.65;;
363;SDS011;173;48.718;9.274;2022-07-10T07:26:40;2.40;;;2.20;;
363;SDS011;173;48.718;9.274;2022-07-10T07:29:15;3.00;;;2.30;;
363;SDS011;173;48.718;9.274;2022-07-10T07:34:20;2.20;;;2.00;;
363;SDS011;173;48.718;9.274;2022-07-10T07:36:53;3.90;;;2.50;;
363;SDS011;173;48.718;9.274;2022-07-10T07:39:26;2.00;;;1.80;;
363;SDS011;173;48.718;9.274;2022-07-10T07:41:59;3.00;;;2.15;;
363;SDS011;173;48.718;9.274;2022-07-10T07:44:32;2.40;;;2.30;;
363;SDS011;173;48.718;9.274;2022-07-10T07:47:04;6.30;;;4.55;;
363;SDS011;173;48.718;9.274;2022-07-10T07:49:36;3.65;;;2.80;;
363;SDS011;173;48.718;9.274;2022-07-10T07:52:09;3.30;;;2.40;;
363;SDS011;173;48.718;9.274;2022-07-10T07:54:41;2.20;;;2.00;;
363;SDS011;173;48.718;9.274;2022-07-10T07:59:43;4.20;;;3.20;;
363;SDS011;173;48.718;9.274;2022-07-10T08:02:16;2.90;;;2.20;;
363;SDS011;173;48.718;9.274;2022-07-10T08:04:48;3.90;;;2.40;;
363;SDS011;173;48.718;9.274;2022-07-10T08:07:20;2.60;;;2.10;;
363;SDS011;173;48.718;9.274;2022-07-10T08:09:53;2.10;;;1.90;;
363;SDS011;173;48.718;9.274;2022-07-10T08:14:56;2.40;;;2.20;;
363;SDS011;173;48.718;9.274;2022-07-10T08:17:28;4.60;;;4.05;;
363;SDS011;173;48.718;9.274;2022-07-10T08:20:01;2.35;;;2.15;;
363;SDS011;173;48.718;9.274;2022-07-10T08:22:33;3.70;;;2.20;;
363;SDS011;173;48.718;9.274;2022-07-10T08:25:04;2.20;;;2.10;;
363;SDS011;173;48.718;9.274;2022-07-10T08:27:35;2.13;;;2.00;;
363;SDS011;173;48.718;9.274;2022-07-10T08:32:39;3.40;;;2.20;;
363;SDS011;173;48.718;9.274;2022-07-10T08:35:12;1.90;;;1.70;;
363;SDS011;173;48.718;9.274;2022-07-10T08:37:44;4.30;;;1.80;;
363;SDS011;173;48.718;9.274;2022-07-10T08:42:47;1.90;;;1.80;;
363;SDS011;173;48.718;9.274;2022-07-10T08:45:20;2.40;;;2.20;;
363;SDS011;173;48.718;9.274;2022-07-10T08:47:52;1.90;;;1.80;;
363;SDS011;173;48.718;9.274;2022-07-10T08:53:00;5.95;;;2.10;;
363;SDS011;173;48.718;9.274;2022-07-10T08:55:53;2.60;;;2.15;;
363;SDS011;173;48.718;9.274;2022-07-10T09:00:57;2.30;;;1.80;;
363;SDS011;173;48.718;9.274;2022-07-10T09:03:29;5.03;;;2.40;;
363;SDS011;173;48.718;9.274;2022-07-10T09:06:04;2.10;;;1.90;;
363;SDS011;173;48.718;9.274;2022-07-10T09:08:37;3.80;;;1.83;;
363;SDS011;173;48.718;9.274;2022-07-10T09:14:03;2.70;;;2.50;;
363;SDS011;173;48.718;9.274;2022-07-10T09:16:38;2.10;;;1.70;;
363;SDS011;173;48.718;9.274;2022-07-10T09:19:19;2.20;;;1.90;;
363;SDS011;173;48.718;9.274;2022-07-10T09:22:06;2.07;;;1.87;;
363;SDS011;173;48.718;9.274;2022-07-10T09:24:47;1.95;;;1.60;;
363;SDS011;173;48.718;9.274;2022-07-10T09:27:16;2.10;;;1.90;;
363;SDS011;173;48.718;9.274;2022-07-10T09:29:50;4.30;;;2.10;;
363;SDS011;173;48.718;9.274;2022-07-10T09:32:23;2.30;;;2.10;;
363;SDS011;173;48.718;9.274;2022-07-10T09:34:53;2.10;;;1.90;;
363;SDS011;173;48.718;9.274;2022-07-10T09:37:44;2.70;;;1.50;;
363;SDS011;173;48.718;9.274;2022-07-10T09:40:18;2.70;;;1.50;;
363;SDS011;173;48.718;9.274;2022-07-10T09:43:17;1.95;;;1.70;;
363;SDS011;173;48.718;9.274;2022-07-10T09:45:49;2.13;;;1.80;;
363;SDS011;173;48.718;9.274;2022-07-10T09:50:53;2.15;;;1.95;;
363;SDS011;173;48.718;9.274;2022-07-10T09:53:27;4.00;;;1.60;;
363;SDS011;173;48.718;9.274;2022-07-10T09:56:00;1.90;;;1.70;;
363;SDS011;173;48.718;9.274;2022-07-10T09:58:35;1.60;;;1.50;;
363;SDS011;173;48.718;9.274;2022-07-10T10:06:14;2.60;;;1.60;;
363;SDS011;173;48.718;9.274;2022-07-10T10:11:45;1.40;;;1.30;;
363;SDS011;173;48.718;9.274;2022-07-10T10:14:22;1.50;;;1.40;;
363;SDS011;173;48.718;9.274;2022-07-10T10:16:56;1.80;;;1.40;;
363;SDS011;173;48.718;9.274;2022-07-10T10:19:29;4.00;;;1.75;;
363;SDS011;173;48.718;9.274;2022-07-10T10:22:22;2.90;;;1.65;;
363;SDS011;173;48.718;9.274;2022-07-10T10:24:55;2.15;;;1.95;;
363;SDS011;173;48.718;9.274;2022-07-10T10:29:59;2.20;;;1.60;;
363;SDS011;173;48.718;9.274;2022-07-10T10:32:33;3.10;;;1.90;;
363;SDS011;173;48.718;9.274;2022-07-10T10:35:09;1.75;;;1.65;;
363;SDS011;173;48.718;9.274;2022-07-10T10:37:50;1.60;;;1.50;;
363;SDS011;173;48.718;9.274;2022-07-10T10:40:31;2.25;;;1.70;;
363;SDS011;173;48.718;9.274;2022-07-10T10:43:22;1.40;;;1.30;;
363;SDS011;173;48.718;9.274;2022-07-10T10:45:54;1.75;;;1.40;;
363;SDS011;173;48.718;9.274;2022-07-10T10:48:26;3.70;;;1.80;;
363;SDS011;173;48.718;9.274;2022-07-10T11:00:29;1.90;;;1.70;;
363;SDS011;173;48.718;9.274;2022-07-10T11:03:14;2.50;;;2.00;;
363;SDS011;173;48.718;9.274;2022-07-10T11:05:53;5.10;;;1.60;;
363;SDS011;173;48.718;9.274;2022-07-10T11:08:37;1.30;;;1.20;;
363;SDS011;173;48.718;9.274;2022-07-10T11:12:15;1.40;;;1.30;;
363;SDS011;173;48.718;9.274;2022-07-10T11:14:04;1.50;;;1.40;;
363;SDS011;173;48.718;9.274;2022-07-10T11:16:37;2.50;;;1.60;;
363;SDS011;173;48.718;9.274;2022-07-10T11:19:18;1.70;;;1.60;;
363;SDS011;173;48.718;9.274;2022-07-10T11:28:10;1.85;;;1.45;;
363;SDS011;173;48.718;9.274;2022-07-10T11:30:49;2.35;;;1.70;;
363;SDS011;173;48.718;9.274;2022-07-10T11:33:22;1.30;;;1.20;;
363;SDS011;173;48.718;9.274;2022-07-10T11:35:55;1.60;;;1.50;;
363;SDS011;173;48.718;9.274;2022-07-10T11:38:27;1.70;;;1.60;;
363;SDS011;173;48.718;9.274;2022-07-10T11:41:01;2.20;;;1.60;;
363;SDS011;173;48.718;9.274;2022-07-10T11:43:34;2.10;;;1.80;;
363;SDS011;173;48.718;9.274;2022-07-10T11:46:10;1.70;;;1.30;;
363;SDS011;173;48.718;9.274;2022-07-10T11:48:42;2.60;;;1.65;;
363;SDS011;173;48.718;9.274;2022-07-10T11:51:21;1.75;;;1.45;;
363;SDS011;173;48.718;9.274;2022-07-10T11:53:58;3.45;;;1.95;;
363;SDS011;173;48.718;9.274;2022-07-10T11:56:48;2.20;;;2.00;;
363;SDS011;173;48.718;9.274;2022-07-10T11:59:26;2.00;;;1.60;;
363;SDS011;173;48.718;9.274;2022-07-10T12:01:59;1.40;;;1.30;;
363;SDS011;173;48.718;9.274;2022-07-10T12:12:05;1.47;;;1.37;;
363;SDS011;173;48.718;9.274;2022-07-10T12:14:38;2.00;;;1.30;;
363;SDS011;173;48.718;9.274;2022-07-10T12:17:10;1.20;;;1.10;;
363;SDS011;173;48.718;9.274;2022-07-10T12:19:43;1.10;;;1.00;;
363;SDS011;173;48.718;9.274;2022-07-10T12:22:17;2.63;;;1.83;;
363;SDS011;173;48.718;9.274;2022-07-10T12:26:10;1.40;;;1.20;;
363;SDS011;173;48.718;9.274;2022-07-10T12:28:49;3.30;;;1.45;;
363;SDS011;173;48.718;9.274;2022-07-10T12:31:27;1.30;;;1.20;;
363;SDS011;173;48.718;9.274;2022-07-10T12:36:42;1.80;;;1.50;;
363;SDS011;173;48.718;9.274;2022-07-10T12:39:21;1.50;;;1.40;;
363;SDS011;173;48.718;9.274;2022-07-10T12:42:08;2.30;;;1.60;;
363;SDS011;173;48.718;9.274;2022-07-10T12:44:42;1.20;;;1.10;;
363;SDS011;173;48.718;9.274;2022-07-10T12:50:41;2.80;;;1.20;;
363;SDS011;173;48.718;9.274;2022-07-10T12:53:14;2.40;;;1.03;;
363;SDS011;173;48.718;9.274;2022-07-10T12:55:46;1.80;;;1.00;;
363;SDS011;173;48.718;9.274;2022-07-10T12:58:17;1.90;;;1.20;;
363;SDS011;173;48.718;9.274;2022-07-10T13:00:50;2.25;;;1.35;;
363;SDS011;173;48.718;9.274;2022-07-10T13:03:22;2.55;;;1.10;;
363;SDS011;173;48.718;9.274;2022-07-10T13:05:56;0.80;;;0.80;;
363;SDS011;173;48.718;9.274;2022-07-10T13:08:28;0.90;;;0.70;;
363;SDS011;173;48.718;9.274;2022-07-10T13:12:34;2.15;;;1.15;;
363;SDS011;173;48.718;9.274;2022-07-10T13:15:06;1.55;;;1.30;;
363;SDS011;173;48.718;9.274;2022-07-10T13:17:44;1.40;;;1.10;;
363;SDS011;173;48.718;9.274;2022-07-10T13:20:16;1.25;;;0.90;;
363;SDS011;173;48.718;9.274;2022-07-10T13:22:48;1.75;;;1.00;;
363;SDS011;173;48.718;9.274;2022-07-10T13:25:20;1.55;;;1.20;;
363;SDS011;173;48.718;9.274;2022-07-10T13:29:16;2.20;;;1.40;;
363;SDS011;173;48.718;9.274;2022-07-10T13:31:48;1.40;;;1.30;;
363;SDS011;173;48.718;9.274;2022-07-10T13:34:20;1.70;;;1.00;;
363;SDS011;173;48.718;9.274;2022-07-10T13:36:52;1.60;;;1.40;;
363;SDS011;173;48.718;9.274;2022-07-10T13:39:25;1.20;;;1.10;;
363;SDS011;173;48.718;9.274;2022-07-10T13:41:58;3.30;;;1.00;;
363;SDS011;173;48.718;9.274;2022-07-10T13:44:30;1.50;;;1.00;;
363;SDS011;173;48.718;9.274;2022-07-10T13:47:03;2.55;;;1.15;;
363;SDS011;173;48.718;9.274;2022-07-10T13:49:34;2.25;;;0.95;;
363;SDS011;173;48.718;9.274;2022-07-10T13:52:06;1.30;;;1.00;;
363;SDS011;173;48.718;9.274;2022-07-10T13:54:39;1.10;;;1.00;;
363;SDS011;173;48.718;9.274;2022-07-10T13:57:11;1.40;;;0.80;;
363;SDS011;173;48.718;9.274;2022-07-10T13:59:43;1.85;;;0.85;;
363;SDS011;173;48.718;9.274;2022-07-10T14:02:15;1.00;;;0.90;;
363;SDS011;173;48.718;9.274;2022-07-10T14:04:47;1.00;;;0.90;;
363;SDS011;173;48.718;9.274;2022-07-10T14:07:19;1.10;;;1.00;;
363;SDS011;173;48.718;9.274;2022-07-10T14:09:51;1.30;;;0.80;;
363;SDS011;173;48.718;9.274;2022-07-10T14:15:17;1.50;;;1.40;;
363;SDS011;173;48.718;9.274;2022-07-10T14:17:50;2.70;;;1.50;;
363;SDS011;173;48.718;9.274;2022-07-10T14:20:22;1.90;;;1.20;;
363;SDS011;173;48.718;9.274;2022-07-10T14:22:54;1.65;;;1.55;;
363;SDS011;173;48.718;9.274;2022-07-10T14:25:27;1.10;;;1.00;;
363;SDS011;173;48.718;9.274;2022-07-10T14:27:59;6.25;;;5.75;;
363;SDS011;173;48.718;9.274;2022-07-10T14:30:32;1.45;;;1.35;;
363;SDS011;173;48.718;9.274;2022-07-10T14:33:05;13.00;;;12.20;;
363;SDS011;173;48.718;9.274;2022-07-10T14:35:37;5.10;;;4.40;;
363;SDS011;173;48.718;9.274;2022-07-10T14:38:10;1.10;;;1.00;;
363;SDS011;173;48.718;9.274;2022-07-10T14:40:40;1.70;;;1.20;;
363;SDS011;173;48.718;9.274;2022-07-10T14:43:12;3.20;;;1.05;;
363;SDS011;173;48.718;9.274;2022-07-10T14:45:44;1.10;;;1.00;;
363;SDS011;173;48.718;9.274;2022-07-10T14:48:17;2.60;;;0.80;;
363;SDS011;173;48.718;9.274;2022-07-10T14:50:49;1.40;;;1.00;;
363;SDS011;173;48.718;9.274;2022-07-10T14:53:23;1.93;;;0.97;;
363;SDS011;173;48.718;9.274;2022-07-10T14:55:57;1.30;;;0.90;;
363;SDS011;173;48.718;9.274;2022-07-10T14:58:30;1.10;;;0.70;;
